createdAt,value
2019-01-12T00:00:20.968Z,3.17
2019-01-12T00:02:49.406Z,2.30
2019-01-12T00:05:17.872Z,2.67
2019-01-12T00:07:46.308Z,2.70
2019-01-12T00:10:14.909Z,2.40
2019-01-12T00:12:43.353Z,2.00
2019-01-12T00:15:11.948Z,1.63
2019-01-12T00:17:40.388Z,1.83
2019-01-12T00:20:09.380Z,2.00
2019-01-12T00:22:37.828Z,1.90
2019-01-12T00:25:07.686Z,2.13
2019-01-12T00:27:36.152Z,3.10
2019-01-12T00:30:08.015Z,2.50
2019-01-12T00:32:36.532Z,2.80
2019-01-12T00:35:06.123Z,2.20
2019-01-12T00:37:34.929Z,3.40
2019-01-12T00:40:04.628Z,2.00
2019-01-12T00:42:33.087Z,2.57
2019-01-12T00:45:01.797Z,2.90
2019-01-12T00:47:30.345Z,2.50
2019-01-12T00:49:59.123Z,2.50
2019-01-12T00:52:28.007Z,2.90
2019-01-12T00:54:56.829Z,2.93
2019-01-12T00:57:25.578Z,2.57
2019-01-12T00:59:54.029Z,2.10
2019-01-12T01:02:22.478Z,2.13
2019-01-12T01:04:50.988Z,2.33
2019-01-12T01:07:19.719Z,2.20
2019-01-12T01:09:48.152Z,2.27
2019-01-12T01:12:16.606Z,2.43
2019-01-12T01:14:45.035Z,2.30
2019-01-12T01:17:13.821Z,2.60
2019-01-12T01:19:42.247Z,2.27
2019-01-12T01:22:10.709Z,2.53
2019-01-12T01:24:45.554Z,2.50
2019-01-12T01:27:09.325Z,2.50
2019-01-12T01:29:38.100Z,2.80
2019-01-12T01:32:06.569Z,2.93
2019-01-12T01:34:34.999Z,3.40
2019-01-12T01:37:03.472Z,3.50
2019-01-12T01:39:32.248Z,3.13
2019-01-12T01:42:00.789Z,4.07
2019-01-12T01:44:29.233Z,3.70
2019-01-12T01:46:57.965Z,3.97
2019-01-12T01:49:26.416Z,3.73
2019-01-12T01:51:54.850Z,4.00
2019-01-12T01:54:23.308Z,4.30
2019-01-12T01:56:51.745Z,3.80
2019-01-12T01:59:20.265Z,3.93
2019-01-12T02:01:48.848Z,4.83
2019-01-12T02:04:17.371Z,4.67
2019-01-12T02:06:46.101Z,5.20
2019-01-12T02:09:14.843Z,5.50
2019-01-12T02:11:43.280Z,5.80
2019-01-12T02:14:11.749Z,5.43
2019-01-12T02:16:40.206Z,5.77
2019-01-12T02:19:09.007Z,6.13
2019-01-12T02:21:37.529Z,6.70
2019-01-12T02:24:06.289Z,6.97
2019-01-12T02:26:34.776Z,6.83
2019-01-12T02:29:03.357Z,6.93
2019-01-12T02:31:32.172Z,7.57
2019-01-12T02:34:00.622Z,7.37
2019-01-12T02:36:29.080Z,7.47
2019-01-12T02:38:57.812Z,7.10
2019-01-12T02:41:26.284Z,6.20
2019-01-12T02:43:55.981Z,6.87
2019-01-12T02:46:24.443Z,7.07
2019-01-12T02:48:53.265Z,6.60
2019-01-12T02:51:21.957Z,7.23
2019-01-12T02:53:50.436Z,7.50
2019-01-12T02:56:18.945Z,7.60
2019-01-12T02:58:47.668Z,7.33
2019-01-12T03:01:16.268Z,6.73
2019-01-12T03:03:45.016Z,7.07
2019-01-12T03:06:13.536Z,6.00
2019-01-12T03:08:42.005Z,5.87
2019-01-12T03:11:10.472Z,5.90
2019-01-12T03:13:38.910Z,6.77
2019-01-12T03:16:07.651Z,6.70
2019-01-12T03:18:36.111Z,8.03
2019-01-12T03:21:04.708Z,6.70
2019-01-12T03:23:33.156Z,6.90
2019-01-12T03:26:01.627Z,8.40
2019-01-12T03:28:30.382Z,8.23
2019-01-12T03:30:58.846Z,8.00
2019-01-12T03:33:27.284Z,8.07
2019-01-12T03:35:55.827Z,7.83
2019-01-12T03:38:24.274Z,8.40
2019-01-12T03:40:53.036Z,7.70
2019-01-12T03:43:21.758Z,8.50
2019-01-12T03:45:50.592Z,8.00
2019-01-12T03:48:19.280Z,7.60
2019-01-12T03:50:48.039Z,7.67
2019-01-12T03:53:16.809Z,7.73
2019-01-12T03:55:45.308Z,7.57
2019-01-12T03:58:14.065Z,7.43
2019-01-12T04:00:42.524Z,8.30
2019-01-12T04:03:11.266Z,7.00
2019-01-12T04:05:40.000Z,7.37
2019-01-12T04:08:08.452Z,7.40
2019-01-12T04:10:36.910Z,6.87
2019-01-12T04:13:05.739Z,6.40
2019-01-12T04:15:34.322Z,6.77
2019-01-12T04:18:02.937Z,7.10
2019-01-12T04:20:31.416Z,8.70
2019-01-12T04:22:59.940Z,7.63
2019-01-12T04:25:33.527Z,6.83
2019-01-12T04:27:58.916Z,7.40
2019-01-12T04:30:27.441Z,7.50
2019-01-12T04:32:56.262Z,7.43
2019-01-12T04:35:24.730Z,6.90
2019-01-12T04:37:53.239Z,7.17
2019-01-12T04:40:21.705Z,7.17
2019-01-12T04:42:50.446Z,6.63
2019-01-12T04:45:18.939Z,6.93
2019-01-12T04:47:47.398Z,6.50
2019-01-12T04:50:16.200Z,6.70
2019-01-12T04:52:44.738Z,6.23
2019-01-12T04:55:14.110Z,6.20
2019-01-12T04:57:42.674Z,6.07
2019-01-12T05:00:16.013Z,6.27
2019-01-12T05:02:44.548Z,5.60
2019-01-12T05:05:13.351Z,6.60
2019-01-12T05:07:41.883Z,5.93
2019-01-12T05:10:11.867Z,6.23
2019-01-12T05:12:40.593Z,6.63
2019-01-12T05:15:11.552Z,7.10
2019-01-12T05:17:40.426Z,7.00
2019-01-12T05:20:18.744Z,7.17
2019-01-12T05:22:47.720Z,6.40
2019-01-12T05:25:16.332Z,6.70
2019-01-12T05:27:44.748Z,6.80
2019-01-12T05:30:17.133Z,6.70
2019-01-12T05:32:45.761Z,5.80
2019-01-12T05:35:14.229Z,5.87
2019-01-12T05:37:43.090Z,6.07
2019-01-12T05:40:12.047Z,5.70
2019-01-12T05:42:40.484Z,5.47
2019-01-12T05:45:11.086Z,5.90
2019-01-12T05:47:39.518Z,6.07
2019-01-12T05:50:10.353Z,5.60
2019-01-12T05:52:39.015Z,6.30
2019-01-12T05:55:08.349Z,6.50
2019-01-12T05:57:36.929Z,6.60
2019-01-12T06:00:08.733Z,7.50
2019-01-12T06:02:37.254Z,6.80
2019-01-12T06:05:06.037Z,6.47
2019-01-12T06:07:34.452Z,6.97
2019-01-12T06:10:06.046Z,7.70
2019-01-12T06:12:34.780Z,7.70
2019-01-12T06:15:04.500Z,7.80
2019-01-12T06:17:33.240Z,9.37
2019-01-12T06:20:01.684Z,10.37
2019-01-12T06:22:30.495Z,11.23
2019-01-12T06:24:59.006Z,11.50
2019-01-12T06:27:27.488Z,12.30
2019-01-12T06:29:55.947Z,11.77
2019-01-12T06:32:24.410Z,12.40
2019-01-12T06:34:52.904Z,11.10
2019-01-12T06:37:21.377Z,11.97
2019-01-12T06:39:49.895Z,11.50
2019-01-12T06:42:18.660Z,11.47
2019-01-12T06:44:47.190Z,12.40
2019-01-12T06:47:15.649Z,12.43
2019-01-12T06:49:44.379Z,13.80
2019-01-12T06:52:13.118Z,13.10
2019-01-12T06:54:41.916Z,12.30
2019-01-12T06:57:10.549Z,11.33
2019-01-12T06:59:39.031Z,13.70
2019-01-12T07:02:07.577Z,13.10
2019-01-12T07:04:36.081Z,13.13
2019-01-12T07:07:04.821Z,12.03
2019-01-12T07:09:33.387Z,12.20
2019-01-12T07:12:01.895Z,11.53
2019-01-12T07:14:30.458Z,10.90
2019-01-12T07:16:58.975Z,11.10
2019-01-12T07:19:27.801Z,12.47
2019-01-12T07:21:56.259Z,11.67
2019-01-12T07:24:25.036Z,12.83
2019-01-12T07:26:53.639Z,11.67
2019-01-12T07:29:22.447Z,11.20
2019-01-12T07:31:50.954Z,11.97
2019-01-12T07:34:19.496Z,12.53
2019-01-12T07:36:47.934Z,12.00
2019-01-12T07:39:16.399Z,11.93
2019-01-12T07:41:44.841Z,10.57
2019-01-12T07:44:13.603Z,11.30
2019-01-12T07:46:42.147Z,12.23
2019-01-12T07:49:10.616Z,12.13
2019-01-12T07:51:39.136Z,11.83
2019-01-12T07:54:07.596Z,10.90
2019-01-12T07:56:36.049Z,12.70
2019-01-12T07:59:04.574Z,13.60
2019-01-12T08:01:33.016Z,13.73
2019-01-12T08:04:01.512Z,13.87
2019-01-12T08:06:29.954Z,13.90
2019-01-12T08:08:58.431Z,13.20
2019-01-12T08:11:26.937Z,14.07
2019-01-12T08:13:57.039Z,12.97
2019-01-12T08:16:25.562Z,13.83
2019-01-12T08:18:54.078Z,13.43
2019-01-12T08:21:22.604Z,13.53
2019-01-12T08:23:51.095Z,14.63
2019-01-12T08:26:19.592Z,13.87
2019-01-12T08:28:48.302Z,15.13
2019-01-12T08:31:17.079Z,13.70
2019-01-12T08:33:45.525Z,16.50
2019-01-12T08:36:21.517Z,15.10
2019-01-12T08:38:49.981Z,15.63
2019-01-12T08:41:19.245Z,15.27
2019-01-12T08:43:47.948Z,16.90
2019-01-12T08:46:16.540Z,15.30
2019-01-12T08:48:45.103Z,16.40
2019-01-12T08:51:13.761Z,15.80
2019-01-12T08:53:42.553Z,14.73
2019-01-12T08:56:11.219Z,16.57
2019-01-12T08:58:39.766Z,15.17
2019-01-12T09:01:08.474Z,15.20
2019-01-12T09:03:37.236Z,15.50
2019-01-12T09:06:05.998Z,15.57
2019-01-12T09:08:34.735Z,16.23
2019-01-12T09:11:03.423Z,16.30
2019-01-12T09:13:32.252Z,16.03
2019-01-12T09:16:00.798Z,16.47
2019-01-12T09:18:29.251Z,17.80
2019-01-12T09:20:57.738Z,16.20
2019-01-12T09:23:26.420Z,17.37
2019-01-12T09:25:54.969Z,17.30
2019-01-12T09:28:23.592Z,17.10
2019-01-12T09:30:52.346Z,17.60
2019-01-12T09:33:20.914Z,16.40
2019-01-12T09:35:49.721Z,17.37
2019-01-12T09:38:21.023Z,18.03
2019-01-12T09:40:51.135Z,17.07
2019-01-12T09:43:19.706Z,17.27
2019-01-12T09:45:48.370Z,18.00
2019-01-12T09:48:18.745Z,19.70
2019-01-12T09:50:47.302Z,19.53
2019-01-12T09:53:15.885Z,16.90
2019-01-12T09:55:46.018Z,19.10
2019-01-12T09:58:14.624Z,19.35
2019-01-12T10:00:43.055Z,17.90
2019-01-12T10:03:11.779Z,18.20
2019-01-12T10:05:40.388Z,19.30
2019-01-12T10:08:08.939Z,18.13
2019-01-12T10:10:37.413Z,18.00
2019-01-12T10:13:06.235Z,18.57
2019-01-12T10:15:34.843Z,18.70
2019-01-12T10:18:03.772Z,20.10
2019-01-12T10:20:32.290Z,18.93
2019-01-12T10:23:00.826Z,19.50
2019-01-12T10:25:29.471Z,19.30
2019-01-12T10:27:58.237Z,19.47
2019-01-12T10:30:27.145Z,19.93
2019-01-12T10:32:56.136Z,21.07
2019-01-12T10:35:24.778Z,18.20
2019-01-12T10:37:53.903Z,20.43
2019-01-12T10:40:22.438Z,19.60
2019-01-12T10:42:51.173Z,18.90
2019-01-12T10:45:21.772Z,21.33
2019-01-12T10:47:50.456Z,19.60
2019-01-12T10:50:24.823Z,20.23
2019-01-12T10:52:53.572Z,20.60
2019-01-12T10:55:22.184Z,21.10
2019-01-12T10:57:50.839Z,21.80
2019-01-12T11:00:25.139Z,20.90
2019-01-12T11:02:53.755Z,19.70
2019-01-12T11:05:22.529Z,22.10
2019-01-12T11:07:51.037Z,21.30
2019-01-12T11:10:19.847Z,22.27
2019-01-12T11:12:48.480Z,23.67
2019-01-12T11:15:19.864Z,21.83
2019-01-12T11:17:48.664Z,23.33
2019-01-12T11:20:17.625Z,22.00
2019-01-12T11:22:46.292Z,22.30
2019-01-12T11:25:15.689Z,22.33
2019-01-12T11:27:44.210Z,24.03
2019-01-12T11:30:18.197Z,21.40
2019-01-12T11:32:47.062Z,20.37
2019-01-12T11:35:22.979Z,22.47
2019-01-12T11:37:51.454Z,22.77
2019-01-12T11:40:21.710Z,22.23
2019-01-12T11:42:51.210Z,24.20
2019-01-12T11:45:20.765Z,22.20
2019-01-12T11:47:49.812Z,20.50
2019-01-12T11:50:18.484Z,22.43
2019-01-12T11:52:47.216Z,21.60
2019-01-12T11:55:18.004Z,22.63
2019-01-12T11:57:46.485Z,21.30
2019-01-12T12:00:25.501Z,20.40
2019-01-12T12:02:54.601Z,21.63
2019-01-12T12:05:23.944Z,22.00
2019-01-12T12:07:53.033Z,22.53
2019-01-12T12:10:21.956Z,20.53
2019-01-12T12:12:50.948Z,21.03
2019-01-12T12:15:20.955Z,21.07
2019-01-12T12:17:49.676Z,20.50
2019-01-12T12:20:20.416Z,21.93
2019-01-12T12:22:49.160Z,21.47
2019-01-12T12:25:17.690Z,20.77
2019-01-12T12:27:46.233Z,21.00
2019-01-12T12:30:22.749Z,19.97
2019-01-12T12:32:51.355Z,18.20
2019-01-12T12:35:20.175Z,20.93
2019-01-12T12:37:48.806Z,20.00
2019-01-12T12:40:19.390Z,20.00
2019-01-12T12:42:47.876Z,19.60
2019-01-12T12:45:18.700Z,20.03
2019-01-12T12:47:47.255Z,17.90
2019-01-12T12:50:16.747Z,18.37
2019-01-12T12:52:45.385Z,19.40
2019-01-12T12:55:15.966Z,18.03
2019-01-12T12:57:45.340Z,17.20
2019-01-12T13:00:22.342Z,17.00
2019-01-12T13:02:50.886Z,16.03
2019-01-12T13:05:19.423Z,16.73
2019-01-12T13:07:48.061Z,16.13
2019-01-12T13:10:19.196Z,16.30
2019-01-12T13:12:48.096Z,17.37
2019-01-12T13:15:17.114Z,15.97
2019-01-12T13:17:45.949Z,15.33
2019-01-12T13:20:20.419Z,17.33
2019-01-12T13:22:49.454Z,16.90
2019-01-12T13:25:18.299Z,15.57
2019-01-12T13:27:46.996Z,14.73
2019-01-12T13:30:18.662Z,15.43
2019-01-12T13:32:47.244Z,14.93
2019-01-12T13:35:16.005Z,15.43
2019-01-12T13:37:44.610Z,13.90
2019-01-12T13:40:21.727Z,15.77
2019-01-12T13:42:50.685Z,15.13
2019-01-12T13:45:20.392Z,13.70
2019-01-12T13:47:49.016Z,12.97
2019-01-12T13:50:20.202Z,14.27
2019-01-12T13:52:48.928Z,13.00
2019-01-12T13:55:17.598Z,13.33
2019-01-12T13:57:47.731Z,13.10
2019-01-12T14:00:30.941Z,12.90
2019-01-12T14:02:59.447Z,12.70
2019-01-12T14:05:28.173Z,13.40
2019-01-12T14:07:57.339Z,12.07
2019-01-12T14:10:26.264Z,11.30
2019-01-12T14:12:55.997Z,13.10
2019-01-12T14:15:39.791Z,12.73
2019-01-12T14:18:08.680Z,12.73
2019-01-12T14:20:37.909Z,12.23
2019-01-12T14:23:06.827Z,11.97
2019-01-12T14:25:35.856Z,11.50
2019-01-12T14:28:04.755Z,12.60
2019-01-12T14:30:33.241Z,12.97
2019-01-12T14:33:01.761Z,12.17
2019-01-12T14:35:30.246Z,12.20
2019-01-12T14:37:59.039Z,12.13
2019-01-12T14:40:27.507Z,12.53
2019-01-12T14:42:56.029Z,11.40
2019-01-12T14:45:27.340Z,11.80
2019-01-12T14:47:56.128Z,11.33
2019-01-12T14:50:24.784Z,12.70
2019-01-12T14:52:53.356Z,12.30
2019-01-12T14:55:22.899Z,12.57
2019-01-12T14:57:52.144Z,11.07
2019-01-12T15:00:23.415Z,11.00
2019-01-12T15:02:52.157Z,10.80
2019-01-12T15:05:25.829Z,10.93
2019-01-12T15:07:54.458Z,10.53
2019-01-12T15:10:23.007Z,9.93
2019-01-12T15:12:51.926Z,9.67
2019-01-12T15:15:20.757Z,9.33
2019-01-12T15:17:49.315Z,8.80
2019-01-12T15:20:23.014Z,10.30
2019-01-12T15:22:51.520Z,8.80
2019-01-12T15:25:20.817Z,9.50
2019-01-12T15:27:49.351Z,10.43
2019-01-12T15:30:20.515Z,11.40
2019-01-12T15:32:50.665Z,9.70
2019-01-12T15:35:19.939Z,10.23
2019-01-12T15:37:48.541Z,9.97
2019-01-12T15:40:18.825Z,9.83
2019-01-12T15:42:47.371Z,10.77
2019-01-12T15:45:18.760Z,10.57
2019-01-12T15:47:47.614Z,10.70
2019-01-12T15:50:18.313Z,10.37
2019-01-12T15:52:46.853Z,11.53
2019-01-12T15:55:15.650Z,10.80
2019-01-12T15:57:44.248Z,11.00
2019-01-12T16:00:24.287Z,14.07
2019-01-12T16:02:53.134Z,13.20
2019-01-12T16:05:21.997Z,12.03
2019-01-12T16:07:50.522Z,11.30
2019-01-12T16:10:19.496Z,11.90
2019-01-12T16:12:48.051Z,12.13
2019-01-12T16:15:19.605Z,11.67
2019-01-12T16:17:48.976Z,11.80
2019-01-12T16:20:29.112Z,12.57
2019-01-12T16:22:57.604Z,11.50
2019-01-12T16:25:26.506Z,10.37
2019-01-12T16:27:55.393Z,9.67
2019-01-12T16:30:23.925Z,10.30
2019-01-12T16:32:52.474Z,9.60
2019-01-12T16:35:20.982Z,10.20
2019-01-12T16:37:49.854Z,9.30
2019-01-12T16:40:23.800Z,9.50
2019-01-12T16:42:52.359Z,9.47
2019-01-12T16:45:21.149Z,9.13
2019-01-12T16:47:49.784Z,8.60
2019-01-12T16:50:18.703Z,8.90
2019-01-12T16:52:47.265Z,8.30
2019-01-12T16:55:16.945Z,9.80
2019-01-12T16:57:45.784Z,8.63
2019-01-12T17:00:17.920Z,8.90
2019-01-12T17:02:46.563Z,9.30
2019-01-12T17:05:15.086Z,9.77
2019-01-12T17:07:43.763Z,9.33
2019-01-12T17:10:17.521Z,10.20
2019-01-12T17:12:46.172Z,9.43
2019-01-12T17:15:16.787Z,10.30
2019-01-12T17:17:45.600Z,8.53
2019-01-12T17:20:17.371Z,7.97
2019-01-12T17:22:47.189Z,8.20
2019-01-12T17:25:16.148Z,7.87
2019-01-12T17:27:44.815Z,7.80
2019-01-12T17:30:16.330Z,8.03
2019-01-12T17:32:45.429Z,8.03
2019-01-12T17:35:15.337Z,8.60
2019-01-12T17:37:44.869Z,8.03
2019-01-12T17:40:14.861Z,7.17
2019-01-12T17:42:43.766Z,6.37
2019-01-12T17:45:17.785Z,6.80
2019-01-12T17:47:46.579Z,5.43
2019-01-12T17:50:20.411Z,6.37
2019-01-12T17:52:49.236Z,6.03
2019-01-12T17:55:19.722Z,5.13
2019-01-12T17:57:48.439Z,6.10
2019-01-12T18:00:20.909Z,6.40
2019-01-12T18:02:49.665Z,5.40
2019-01-12T18:05:20.386Z,7.27
2019-01-12T18:07:49.074Z,6.97
2019-01-12T18:10:17.862Z,6.80
2019-01-12T18:12:46.562Z,6.63
2019-01-12T18:15:15.874Z,6.80
2019-01-12T18:17:44.954Z,6.40
2019-01-12T18:20:15.873Z,7.00
2019-01-12T18:22:45.173Z,7.33
2019-01-12T18:25:14.738Z,7.53
2019-01-12T18:27:43.421Z,8.50
2019-01-12T18:30:20.697Z,8.17
2019-01-12T18:32:49.338Z,7.80
2019-01-12T18:35:17.944Z,9.97
2019-01-12T18:37:46.818Z,9.60
2019-01-12T18:40:17.544Z,9.67
2019-01-12T18:42:46.433Z,9.47
2019-01-12T18:45:17.538Z,8.63
2019-01-12T18:47:51.376Z,9.23
2019-01-12T18:50:20.339Z,8.10
2019-01-12T18:52:49.181Z,7.50
2019-01-12T18:55:18.116Z,7.07
2019-01-12T18:57:46.943Z,7.00
2019-01-12T19:00:24.056Z,6.10
2019-01-12T19:02:52.807Z,5.70
2019-01-12T19:05:21.562Z,5.30
2019-01-12T19:07:50.179Z,5.20
2019-01-12T19:10:18.725Z,5.17
2019-01-12T19:12:47.842Z,5.50
2019-01-12T19:15:25.097Z,5.30
2019-01-12T19:17:54.210Z,5.57
2019-01-12T19:20:22.950Z,5.77
2019-01-12T19:22:51.804Z,5.23
2019-01-12T19:25:20.412Z,5.47
2019-01-12T19:27:48.980Z,8.70
2019-01-12T19:30:22.246Z,6.10
2019-01-12T19:32:51.049Z,6.17
2019-01-12T19:35:19.633Z,6.80
2019-01-12T19:37:48.204Z,6.70
2019-01-12T19:40:21.630Z,6.17
2019-01-12T19:42:50.329Z,6.53
2019-01-12T19:45:19.298Z,6.83
2019-01-12T19:47:48.215Z,7.53
2019-01-12T19:50:19.166Z,8.50
2019-01-12T19:52:48.231Z,8.17
2019-01-12T19:55:17.124Z,6.57
2019-01-12T19:57:46.124Z,5.30
2019-01-12T20:00:20.053Z,5.63
2019-01-12T20:02:48.816Z,5.93
2019-01-12T20:05:17.720Z,5.80
2019-01-12T20:07:46.413Z,5.73
2019-01-12T20:10:16.717Z,5.17
2019-01-12T20:12:45.523Z,5.23
2019-01-12T20:15:19.868Z,5.67
2019-01-12T20:17:48.591Z,5.50
2019-01-12T20:20:18.070Z,5.60
2019-01-12T20:22:47.152Z,4.80
2019-01-12T20:25:21.570Z,4.73
2019-01-12T20:27:50.276Z,4.50
2019-01-12T20:30:24.418Z,5.07
2019-01-12T20:33:16.870Z,4.70
2019-01-12T20:36:07.771Z,5.30
2019-01-12T20:38:39.310Z,5.80
2019-01-12T20:41:11.828Z,5.77
2019-01-12T20:43:46.426Z,5.70
2019-01-12T20:46:27.115Z,5.50
2019-01-12T20:49:01.398Z,5.33
2019-01-12T20:51:53.936Z,5.03
2019-01-12T20:54:31.500Z,4.63
2019-01-12T20:57:03.494Z,5.50
2019-01-12T20:59:35.611Z,5.40
2019-01-12T21:02:19.278Z,6.40
2019-01-12T21:05:07.207Z,5.83
2019-01-12T21:07:43.361Z,6.70
2019-01-12T21:10:15.179Z,5.60
2019-01-12T21:12:58.551Z,6.27
2019-01-12T21:15:30.562Z,6.83
2019-01-12T21:17:59.633Z,6.40
2019-01-12T21:20:28.551Z,6.33
2019-01-12T21:22:57.238Z,5.50
2019-01-12T21:25:26.149Z,6.70
2019-01-12T21:27:55.613Z,6.60
2019-01-12T21:30:24.203Z,8.00
2019-01-12T21:32:52.945Z,6.80
2019-01-12T21:35:21.477Z,7.40
2019-01-12T21:37:49.945Z,7.10
2019-01-12T21:40:19.485Z,7.23
2019-01-12T21:42:48.083Z,7.30
2019-01-12T21:45:24.118Z,6.90
2019-01-12T21:47:52.735Z,6.97
2019-01-12T21:50:21.883Z,6.60
2019-01-12T21:52:50.960Z,6.40
2019-01-12T21:55:21.224Z,6.30
2019-01-12T21:57:50.357Z,5.87
2019-01-12T22:00:21.950Z,5.30
2019-01-12T22:02:50.644Z,5.77
2019-01-12T22:05:19.177Z,5.40
2019-01-12T22:07:47.750Z,6.17
2019-01-12T22:10:19.340Z,5.93
2019-01-12T22:12:47.599Z,5.90
2019-01-12T22:15:17.032Z,6.80
2019-01-12T22:17:45.567Z,7.33
2019-01-12T22:20:16.342Z,6.13
2019-01-12T22:22:44.981Z,6.80
2019-01-12T22:25:13.590Z,6.93
2019-01-12T22:27:42.375Z,6.60
2019-01-12T22:30:14.224Z,6.70
2019-01-12T22:32:42.759Z,6.90
2019-01-12T22:35:11.322Z,7.87
2019-01-12T22:37:40.116Z,7.60
2019-01-12T22:40:14.616Z,7.40
2019-01-12T22:42:43.360Z,7.30
2019-01-12T22:45:12.068Z,7.30
2019-01-12T22:47:40.684Z,7.50
2019-01-12T22:50:14.949Z,8.00
2019-01-12T22:52:43.735Z,6.73
2019-01-12T22:55:13.771Z,6.83
2019-01-12T22:57:42.765Z,7.10
2019-01-12T23:00:22.773Z,7.57
2019-01-12T23:02:51.448Z,7.00
2019-01-12T23:05:20.425Z,7.67
2019-01-12T23:07:49.251Z,7.60
2019-01-12T23:10:18.026Z,7.30
2019-01-12T23:12:46.922Z,7.47
2019-01-12T23:15:15.949Z,7.17
2019-01-12T23:17:44.896Z,7.70
2019-01-12T23:20:13.787Z,7.33
2019-01-12T23:22:42.451Z,7.83
2019-01-12T23:25:11.231Z,8.07
2019-01-12T23:27:40.134Z,8.10
2019-01-12T23:30:12.231Z,8.73
2019-01-12T23:32:40.828Z,8.27
2019-01-12T23:35:10.852Z,9.13
2019-01-12T23:37:39.505Z,9.50
2019-01-12T23:40:11.849Z,9.77
2019-01-12T23:42:40.624Z,9.10
2019-01-12T23:45:14.151Z,9.00
2019-01-12T23:47:42.751Z,8.53
2019-01-12T23:50:15.068Z,8.73
2019-01-12T23:52:43.632Z,8.27
2019-01-12T23:55:12.720Z,8.77
2019-01-12T23:57:41.528Z,9.30
